createdAt,value
2022-11-03T00:00:30.442Z,1.6
2022-11-03T00:02:32.360Z,1.6
2022-11-03T00:04:34.043Z,1.7
2022-11-03T00:08:37.630Z,2.3
2022-11-03T00:10:42.656Z,1.5
2022-11-03T00:12:44.437Z,2.7
2022-11-03T00:14:46.209Z,2.5
2022-11-03T00:16:48.013Z,1.6
2022-11-03T00:18:49.820Z,2.7
2022-11-03T00:20:51.615Z,1.9
2022-11-03T00:22:53.401Z,1.4
2022-11-03T00:24:58.411Z,1.4
2022-11-03T00:27:00.209Z,1.3
2022-11-03T00:29:02.022Z,1.9
2022-11-03T00:31:03.783Z,1.5
2022-11-03T00:33:05.854Z,2.2
2022-11-03T00:39:14.180Z,2.6
2022-11-03T00:44:20.348Z,2
2022-11-03T00:46:22.053Z,4
2022-11-03T00:48:23.860Z,1.9
2022-11-03T00:50:25.638Z,1.8
2022-11-03T00:52:30.636Z,2.3
2022-11-03T00:54:32.411Z,3.3
2022-11-03T00:56:34.189Z,1.6
2022-11-03T00:58:36.007Z,2.8
2022-11-03T01:00:37.761Z,1.7
2022-11-03T01:02:39.659Z,1.8
2022-11-03T01:04:41.338Z,2.9
2022-11-03T01:06:46.352Z,1.8
2022-11-03T01:08:48.133Z,2.3
2022-11-03T01:10:49.930Z,1.5
2022-11-03T01:12:51.705Z,4.1
2022-11-03T01:14:53.485Z,1.5
2022-11-03T01:16:55.397Z,1.6
2022-11-03T01:18:57.060Z,0.9
2022-11-03T01:21:02.070Z,1.1
2022-11-03T01:23:04.260Z,2.3
2022-11-03T01:25:05.642Z,1.7
2022-11-03T01:27:07.563Z,1.3
2022-11-03T01:29:09.193Z,2.4
2022-11-03T01:31:11.002Z,1.6
2022-11-03T01:33:12.772Z,1.6
2022-11-03T01:39:21.344Z,1.6
2022-11-03T01:40:23.861Z,1.8
2022-11-03T01:42:25.639Z,3.3
2022-11-03T01:44:27.433Z,2
2022-11-03T01:46:29.204Z,5.5
2022-11-03T01:48:34.210Z,1
2022-11-03T01:54:39.530Z,1.8
2022-11-03T01:56:41.313Z,1.7
2022-11-03T01:58:43.098Z,1.1
2022-11-03T02:00:44.976Z,2.3
2022-11-03T02:02:49.875Z,1.9
2022-11-03T02:04:51.698Z,1.3
2022-11-03T02:06:53.452Z,2.7
2022-11-03T02:08:55.227Z,2.7
2022-11-03T02:10:57.014Z,1.9
2022-11-03T02:12:58.789Z,2
2022-11-03T02:15:00.575Z,1.9
2022-11-03T02:17:05.561Z,2.6
2022-11-03T02:19:07.382Z,1.8
2022-11-03T02:21:09.136Z,2.1
2022-11-03T02:23:10.896Z,2.7
2022-11-03T02:25:12.687Z,2.9
2022-11-03T02:27:14.455Z,2.6
2022-11-03T02:29:16.254Z,0.9
2022-11-03T02:31:21.257Z,1.4
2022-11-03T02:33:23.045Z,1.5
2022-11-03T02:35:24.828Z,1.6
2022-11-03T02:38:29.118Z,2.8
2022-11-03T02:40:30.885Z,2.5
2022-11-03T02:42:32.688Z,1.2
2022-11-03T02:44:37.702Z,2.2
2022-11-03T02:46:39.474Z,1.5
2022-11-03T02:48:41.245Z,1.9
2022-11-03T02:52:44.797Z,1.7
2022-11-03T02:54:46.574Z,1.4
2022-11-03T02:56:48.373Z,2
2022-11-03T02:58:53.366Z,1.3
2022-11-03T03:00:55.206Z,1.9
2022-11-03T03:02:56.924Z,1.2
2022-11-03T03:04:58.700Z,2.5
2022-11-03T03:07:00.485Z,1.4
2022-11-03T03:09:02.248Z,1.4
2022-11-03T03:11:04.028Z,1.4
2022-11-03T03:13:09.462Z,2.2
2022-11-03T03:15:10.823Z,3.6
2022-11-03T03:17:12.609Z,1.1
2022-11-03T03:19:14.390Z,1.3
2022-11-03T03:21:16.176Z,2.1
2022-11-03T03:23:18.533Z,1.6
2022-11-03T03:25:19.718Z,1.5
2022-11-03T03:27:24.758Z,1.2
2022-11-03T03:29:26.512Z,1.4
2022-11-03T03:31:28.303Z,2.6
2022-11-03T03:34:05.158Z,1.7
2022-11-03T03:38:00.531Z,1.3
2022-11-03T03:44:09.117Z,2
2022-11-03T03:46:10.891Z,2.2
2022-11-03T03:48:12.685Z,1.6
2022-11-03T03:50:14.464Z,1.1
2022-11-03T03:52:16.240Z,1.3
2022-11-03T03:54:21.288Z,1
2022-11-03T03:56:23.040Z,2.7
2022-11-03T03:58:24.842Z,2.4
2022-11-03T04:00:26.608Z,1.7
2022-11-03T04:02:28.461Z,1.1
2022-11-03T04:04:30.175Z,1.3
2022-11-03T04:06:31.961Z,1.8
2022-11-03T04:08:36.967Z,1.4
2022-11-03T04:10:38.768Z,2
2022-11-03T04:12:40.547Z,1.7
2022-11-03T04:14:42.324Z,1.9
2022-11-03T04:16:44.104Z,1.2
2022-11-03T04:22:52.659Z,3.5
2022-11-03T04:30:00.540Z,3.5
2022-11-03T04:32:02.332Z,2
2022-11-03T04:36:10.609Z,2.5
2022-11-03T04:38:12.395Z,2.2
2022-11-03T04:40:14.186Z,1.4
2022-11-03T04:42:15.964Z,1.9
2022-11-03T04:46:19.551Z,1.5
2022-11-03T04:48:21.344Z,1.5
2022-11-03T04:50:26.349Z,2.1
2022-11-03T04:52:28.136Z,3.7
2022-11-03T04:54:29.916Z,1.6
2022-11-03T04:56:31.685Z,1.6
2022-11-03T04:58:33.478Z,0.9
2022-11-03T05:00:35.259Z,1.5
2022-11-03T05:02:37.067Z,2.1
2022-11-03T05:04:42.090Z,1.5
2022-11-03T05:06:43.866Z,1.5
2022-11-03T05:08:45.651Z,1.1
2022-11-03T05:14:57.006Z,2.1
2022-11-03T05:16:52.834Z,1.4
2022-11-03T05:24:03.990Z,2.6
2022-11-03T05:26:05.728Z,0.9
2022-11-03T05:28:07.861Z,2.6
2022-11-03T05:32:14.299Z,1.7
2022-11-03T05:34:16.105Z,4.1
2022-11-03T05:36:17.897Z,1.6
2022-11-03T05:38:19.705Z,3.9
2022-11-03T05:40:21.467Z,1.2
2022-11-03T05:42:23.262Z,0.7
2022-11-03T05:44:25.067Z,2
2022-11-03T05:46:30.102Z,3.7
2022-11-03T05:48:31.873Z,1.5
2022-11-03T05:50:33.674Z,1.2
2022-11-03T05:58:40.826Z,1.2
2022-11-03T06:00:48.878Z,1.6
2022-11-03T06:06:51.193Z,1.2
2022-11-03T06:08:52.977Z,1.2
2022-11-03T06:10:54.755Z,2.4
2022-11-03T06:12:56.540Z,1.6
2022-11-03T06:15:01.648Z,1.2
2022-11-03T06:17:03.359Z,1.4
2022-11-03T06:19:05.127Z,1.4
2022-11-03T06:20:07.636Z,1.3
2022-11-03T06:22:09.436Z,1.3
2022-11-03T06:24:11.211Z,3.5
2022-11-03T06:26:13.001Z,1.5
2022-11-03T06:28:18.054Z,1.2
2022-11-03T06:40:28.785Z,2.2
2022-11-03T06:42:33.773Z,3.3
2022-11-03T06:44:35.569Z,1.7
2022-11-03T06:46:37.362Z,1.7
2022-11-03T06:50:44.749Z,1.1
2022-11-03T06:52:42.782Z,1.5
2022-11-03T06:54:44.566Z,1.3
2022-11-03T06:56:49.730Z,2
2022-11-03T06:58:51.362Z,2.9
2022-11-03T07:00:53.755Z,1.7
2022-11-03T07:02:54.943Z,1.6
2022-11-03T07:04:56.734Z,1.6
2022-11-03T07:06:58.518Z,1.1
2022-11-03T07:09:00.325Z,1.3
2022-11-03T07:11:05.342Z,1.3
2022-11-03T07:15:08.929Z,1.3
2022-11-03T07:17:37.589Z,1.3
2022-11-03T07:19:39.382Z,1
2022-11-03T07:21:41.168Z,1.4
2022-11-03T07:23:47.272Z,2
2022-11-03T07:25:47.979Z,1.4
2022-11-03T07:27:49.775Z,1.3
2022-11-03T07:29:51.575Z,2
2022-11-03T07:31:53.368Z,1.5
2022-11-03T07:33:55.150Z,1.8
2022-11-03T07:36:15.018Z,2.3
2022-11-03T07:38:01.993Z,1.2
2022-11-03T07:40:03.782Z,1.4
2022-11-03T07:42:05.589Z,0.9
2022-11-03T07:44:07.380Z,1.7
2022-11-03T07:46:09.196Z,1.7
2022-11-03T07:48:11.146Z,2.4
2022-11-03T07:50:12.775Z,1.7
2022-11-03T07:52:17.792Z,1.3
2022-11-03T07:56:21.453Z,3.1
2022-11-03T07:58:23.186Z,1.7
2022-11-03T08:00:24.997Z,1.5
2022-11-03T08:02:26.784Z,1.8
2022-11-03T08:04:28.575Z,1.9
2022-11-03T08:06:33.600Z,2.4
2022-11-03T08:08:35.401Z,0.9
2022-11-03T08:10:37.173Z,1.8
2022-11-03T08:11:39.697Z,2.7
2022-11-03T08:13:41.493Z,1.2
2022-11-03T08:15:43.289Z,2.2
2022-11-03T08:19:50.177Z,1.9
2022-11-03T08:21:51.949Z,2.4
2022-11-03T08:23:53.723Z,2
2022-11-03T08:25:55.548Z,1.4
2022-11-03T08:27:57.316Z,2.1
2022-11-03T08:32:00.950Z,2.3
2022-11-03T08:34:05.982Z,1.1
2022-11-03T08:36:07.788Z,1
2022-11-03T08:40:11.247Z,1.6
2022-11-03T08:42:13.049Z,2.2
2022-11-03T08:44:14.858Z,1.6
2022-11-03T08:46:18.123Z,1.2
2022-11-03T08:48:21.713Z,3.3
2022-11-03T08:50:23.605Z,1.7
2022-11-03T08:52:25.305Z,1.3
2022-11-03T08:58:30.725Z,1.7
2022-11-03T09:00:35.914Z,1.2
2022-11-03T09:02:37.633Z,2.3
2022-11-03T09:06:41.190Z,2.2
2022-11-03T09:11:47.299Z,1.7
2022-11-03T09:13:49.120Z,1.2
2022-11-03T09:15:54.164Z,3.8
2022-11-03T09:17:55.962Z,1.5
2022-11-03T09:19:57.771Z,2.1
2022-11-03T09:21:59.574Z,2
2022-11-03T09:24:01.419Z,2.6
2022-11-03T09:26:03.191Z,1
2022-11-03T09:28:05.328Z,1.2
2022-11-03T09:30:14.178Z,1.4
2022-11-03T09:32:11.874Z,1
2022-11-03T09:34:13.672Z,2.2
2022-11-03T09:36:15.625Z,1.2
2022-11-03T09:38:17.299Z,1.7
2022-11-03T09:40:19.097Z,2.4
2022-11-03T09:42:20.875Z,1.8
2022-11-03T09:44:25.898Z,1.9
2022-11-03T09:46:27.693Z,1.4
2022-11-03T09:48:29.513Z,1.6
2022-11-03T09:50:31.316Z,1.6
2022-11-03T09:52:33.147Z,1.5
2022-11-03T09:54:34.946Z,2.7
2022-11-03T09:56:36.770Z,1
2022-11-03T09:58:41.808Z,1.9
2022-11-03T10:00:43.707Z,1.6
2022-11-03T10:02:45.443Z,2
2022-11-03T10:03:47.969Z,1.5
2022-11-03T10:05:49.784Z,1.8
2022-11-03T10:07:51.654Z,1.4
2022-11-03T10:09:53.434Z,1.2
2022-11-03T10:11:58.456Z,1.4
2022-11-03T10:14:00.269Z,1.9
2022-11-03T10:16:02.109Z,2.2
2022-11-03T10:18:03.937Z,1.4
2022-11-03T10:20:05.753Z,1.3
2022-11-03T10:22:07.573Z,1.3
2022-11-03T10:24:09.392Z,2.8
2022-11-03T10:26:15.988Z,1.4
2022-11-03T10:28:17.831Z,1.5
2022-11-03T10:32:21.466Z,1.4
2022-11-03T10:34:23.289Z,1.8
2022-11-03T10:36:25.102Z,1.4
2022-11-03T10:38:26.902Z,1.2
2022-11-03T10:40:47.393Z,1.5
2022-11-03T10:42:35.687Z,1.6
2022-11-03T10:44:35.630Z,2.3
2022-11-03T10:46:50.095Z,1.6
2022-11-03T10:48:39.260Z,1.1
2022-11-03T10:50:41.077Z,1.9
2022-11-03T10:52:42.906Z,2
2022-11-03T10:54:47.971Z,2.2
2022-11-03T10:56:49.806Z,1.2
2022-11-03T10:58:51.671Z,1
2022-11-03T11:01:20.433Z,0.9
2022-11-03T11:03:22.104Z,1.6
2022-11-03T11:05:23.928Z,2.2
2022-11-03T11:07:28.984Z,1.7
2022-11-03T11:09:30.810Z,1.5
2022-11-03T11:11:32.644Z,1.8
2022-11-03T11:13:34.456Z,1.1
2022-11-03T11:15:36.281Z,1.2
2022-11-03T11:17:38.088Z,1.6
2022-11-03T11:19:39.923Z,1.7
2022-11-03T11:21:44.973Z,1.1
2022-11-03T11:23:46.823Z,2.3
2022-11-03T11:25:48.640Z,1.2
2022-11-03T11:27:54.147Z,1.2
2022-11-03T11:29:52.252Z,2.9
2022-11-03T11:31:54.077Z,2.1
2022-11-03T11:36:00.971Z,2.4
2022-11-03T11:38:02.772Z,1.1
2022-11-03T11:40:04.620Z,1
2022-11-03T11:42:06.524Z,2.6
2022-11-03T11:44:08.241Z,2
2022-11-03T11:46:10.180Z,1.9
2022-11-03T11:48:17.511Z,1.3
2022-11-03T11:50:16.972Z,1
2022-11-03T11:52:19.127Z,1.6
2022-11-03T11:54:20.581Z,0.9
2022-11-03T11:55:23.127Z,1.1
2022-11-03T11:57:24.959Z,2.4
2022-11-03T12:05:35.505Z,1.3
2022-11-03T12:15:44.648Z,1.1
2022-11-03T12:19:51.550Z,1
2022-11-03T12:21:53.366Z,1.9
2022-11-03T12:23:55.207Z,1.3
2022-11-03T12:25:57.013Z,2.3
2022-11-03T12:27:58.848Z,1.1
2022-11-03T12:30:00.660Z,1.4
2022-11-03T12:32:07.331Z,1.2
2022-11-03T12:36:09.429Z,2.3
2022-11-03T12:38:11.217Z,1.4
2022-11-03T12:40:13.069Z,6.7
2022-11-03T12:42:14.864Z,1.3
2022-11-03T12:44:16.992Z,1.4
2022-11-03T12:48:23.609Z,1.4
2022-11-03T12:50:25.432Z,3.5
2022-11-03T12:51:27.969Z,1.6
2022-11-03T12:53:29.791Z,0.9
2022-11-03T12:55:31.636Z,1.4
2022-11-03T12:57:33.477Z,1.9
2022-11-03T12:59:38.542Z,7.2
2022-11-03T13:01:40.503Z,1.5
2022-11-03T13:03:42.195Z,0.9
2022-11-03T13:05:44.025Z,1.1
2022-11-03T13:07:45.846Z,0.9
2022-11-03T13:32:14.289Z,1.3
2022-11-03T13:34:16.119Z,0.9
2022-11-03T13:36:18.189Z,1.5
2022-11-03T13:38:19.777Z,1
2022-11-03T13:40:55.566Z,1.1
2022-11-03T13:42:26.686Z,1.2
2022-11-03T13:44:28.487Z,1.2
2022-11-03T13:46:30.350Z,0.9
2022-11-03T13:47:44.041Z,1
2022-11-03T13:50:07.687Z,1.1
2022-11-03T13:55:43.672Z,1.5
2022-11-03T13:59:47.106Z,1
2022-11-03T14:05:52.584Z,1.1
2022-11-03T14:10:02.587Z,2.2
2022-11-03T14:12:01.314Z,1.1
2022-11-03T14:20:08.685Z,1
2022-11-03T14:26:33.034Z,2
2022-11-03T14:28:25.924Z,1.1
2022-11-03T14:32:22.846Z,2.4
2022-11-03T14:34:24.878Z,0.8
2022-11-03T14:36:26.523Z,1.4
2022-11-03T14:38:31.555Z,1.2
2022-11-03T14:40:33.374Z,1.3
2022-11-03T14:42:35.215Z,0.9
2022-11-03T14:47:05.697Z,1.4
2022-11-03T14:49:07.506Z,1
2022-11-03T14:55:16.256Z,1.9
2022-11-03T14:59:19.886Z,1.9
2022-11-03T15:01:21.915Z,1.7
2022-11-03T15:09:32.265Z,1.1
2022-11-03T15:13:41.603Z,1
2022-11-03T15:15:37.736Z,2.1
2022-11-03T15:17:39.578Z,1.4
2022-11-03T15:21:46.457Z,1.1
2022-11-03T15:25:50.088Z,1.2
2022-11-03T15:31:55.559Z,1.9
2022-11-03T15:34:03.073Z,1.6
2022-11-03T15:36:02.513Z,1.6
2022-11-03T15:39:06.817Z,0.8
2022-11-03T15:41:08.642Z,1.5
2022-11-03T15:43:10.463Z,0.8
2022-11-03T15:45:12.278Z,1.5
2022-11-03T15:47:17.341Z,1.3
2022-11-03T15:49:19.168Z,1.4
2022-11-03T15:51:21.002Z,2.9
2022-11-03T15:53:22.824Z,1.7
2022-11-03T15:55:24.607Z,1.3
2022-11-03T15:57:26.440Z,1.3
2022-11-03T16:03:35.121Z,1.3
2022-11-03T16:05:36.951Z,1.8
2022-11-03T16:13:44.207Z,2.4
2022-11-03T16:17:52.584Z,2.4
2022-11-03T16:19:54.393Z,2
2022-11-03T16:21:56.224Z,1.7
2022-11-03T16:23:58.025Z,3.3
2022-11-03T16:25:59.836Z,1.5
2022-11-03T16:28:01.631Z,1.5
2022-11-03T16:30:06.714Z,2.4
2022-11-03T16:32:08.507Z,1.3
2022-11-03T16:34:10.316Z,1.3
2022-11-03T16:35:12.874Z,3.3
2022-11-03T16:37:14.664Z,1.1
2022-11-03T16:39:16.492Z,1.2
2022-11-03T16:41:18.280Z,1.5
2022-11-03T16:43:23.348Z,2
2022-11-03T16:45:25.177Z,3
2022-11-03T16:47:27.065Z,2.2
2022-11-03T16:49:28.776Z,2.7
2022-11-03T16:51:30.573Z,1.9
2022-11-03T16:53:32.385Z,1.7
2022-11-03T16:55:34.201Z,2.7
2022-11-03T16:57:39.261Z,2
2022-11-03T16:59:41.083Z,1.7
2022-11-03T17:01:42.997Z,2.3
2022-11-03T17:03:44.705Z,1.7
2022-11-03T17:05:46.512Z,3
2022-11-03T17:07:53.163Z,2.4
2022-11-03T17:11:55.205Z,2
2022-11-03T17:13:57.160Z,2.4
2022-11-03T17:18:00.634Z,2.9
2022-11-03T17:20:02.337Z,2.9
2022-11-03T17:22:04.119Z,2.3
2022-11-03T17:24:05.908Z,2.2
2022-11-03T17:26:10.968Z,4.2
2022-11-03T17:28:12.775Z,2.5
2022-11-03T17:30:14.592Z,2.7
2022-11-03T17:31:17.119Z,2.7
2022-11-03T17:37:22.548Z,3.5
2022-11-03T17:41:29.398Z,3.2
2022-11-03T17:45:33.065Z,3.6
2022-11-03T17:47:34.858Z,3.4
2022-11-03T17:49:36.680Z,2.5
2022-11-03T17:51:38.461Z,4.6
2022-11-03T17:53:43.482Z,3.3
2022-11-03T17:55:53.098Z,4
2022-11-03T17:57:47.099Z,3.5
2022-11-03T17:59:48.923Z,4.3
2022-11-03T18:01:50.828Z,5.1
2022-11-03T18:03:52.516Z,4.8
2022-11-03T18:05:54.537Z,4.5
2022-11-03T18:08:00.223Z,4.4
2022-11-03T18:12:03.819Z,4.3
2022-11-03T18:14:05.627Z,4.5
2022-11-03T18:16:07.581Z,4.7
2022-11-03T18:18:09.550Z,4.9
2022-11-03T18:20:11.039Z,3.9
2022-11-03T18:22:16.096Z,5.4
2022-11-03T18:24:17.881Z,5.9
2022-11-03T18:26:19.662Z,5.5
2022-11-03T18:28:48.344Z,6.6
2022-11-03T18:30:50.142Z,5.7
2022-11-03T18:32:51.945Z,7
2022-11-03T18:34:56.961Z,5.5
2022-11-03T18:36:58.762Z,6.5
2022-11-03T18:39:00.606Z,6.1
2022-11-03T18:41:02.374Z,7.2
2022-11-03T18:43:04.332Z,6.8
2022-11-03T18:45:05.976Z,6.2
2022-11-03T18:47:07.765Z,5.8
2022-11-03T18:49:12.815Z,5.9
2022-11-03T18:51:14.591Z,7
2022-11-03T18:53:16.399Z,6.7
2022-11-03T18:55:18.179Z,7.5
2022-11-03T18:57:19.979Z,6.7
2022-11-03T18:59:21.786Z,8.4
2022-11-03T19:01:23.730Z,6.2
2022-11-03T19:03:28.592Z,6.4
2022-11-03T19:05:30.410Z,7.1
2022-11-03T19:07:32.215Z,7.8
2022-11-03T19:09:33.982Z,5.9
2022-11-03T19:11:35.800Z,5.2
2022-11-03T19:13:37.592Z,6.7
2022-11-03T19:15:39.401Z,6.1
2022-11-03T19:17:44.417Z,6.5
2022-11-03T19:19:46.204Z,7
2022-11-03T19:21:48.013Z,5.3
2022-11-03T19:26:54.139Z,4.3
2022-11-03T19:28:55.951Z,5.4
2022-11-03T19:33:02.805Z,4.9
2022-11-03T19:35:04.577Z,5.2
2022-11-03T19:37:06.373Z,5.2
2022-11-03T19:39:08.191Z,5.5
2022-11-03T19:41:09.972Z,9
2022-11-03T19:43:11.778Z,5.6
2022-11-03T19:45:16.815Z,5.6
2022-11-03T19:47:18.612Z,5.4
2022-11-03T19:53:24.039Z,7.4
2022-11-03T19:55:25.838Z,6.2
2022-11-03T19:57:27.652Z,5.6
2022-11-03T19:59:32.684Z,4.7
2022-11-03T20:01:34.682Z,4.5
2022-11-03T20:03:36.279Z,4.5
2022-11-03T20:05:38.096Z,4.9
2022-11-03T20:07:39.897Z,5.2
2022-11-03T20:09:41.720Z,4.8
2022-11-03T20:11:43.515Z,4.5
2022-11-03T20:13:48.546Z,4.4
2022-11-03T20:17:52.125Z,4.5
2022-11-03T20:18:54.649Z,4.8
2022-11-03T20:22:58.252Z,4.1
2022-11-03T20:25:00.064Z,3.9
2022-11-03T20:27:05.084Z,5
2022-11-03T20:29:06.899Z,6.4
2022-11-03T20:31:08.702Z,4.2
2022-11-03T20:33:10.614Z,4.4
2022-11-03T20:35:12.400Z,3.7
2022-11-03T20:37:14.180Z,4.1
2022-11-03T20:39:15.977Z,4
2022-11-03T20:45:24.627Z,4.3
2022-11-03T20:49:28.211Z,3.6
2022-11-03T20:51:30.036Z,3.5
2022-11-03T20:55:36.858Z,3.7
2022-11-03T20:57:38.639Z,3.4
2022-11-03T20:59:40.437Z,3.7
2022-11-03T21:01:42.441Z,3.9
2022-11-03T21:03:58.934Z,4.2
2022-11-03T21:05:45.838Z,3.7
2022-11-03T21:07:47.654Z,4
2022-11-03T21:09:52.678Z,2.4
2022-11-03T21:11:54.468Z,13
2022-11-03T21:13:56.301Z,4.7
2022-11-03T21:14:58.808Z,4.4
2022-11-03T21:17:00.596Z,4
2022-11-03T21:21:05.662Z,2.7
2022-11-03T21:23:09.653Z,3.5
2022-11-03T21:25:11.051Z,4.2
2022-11-03T21:29:19.592Z,4.2
2022-11-03T21:31:16.455Z,3.1
2022-11-03T21:33:18.290Z,3.3
2022-11-03T21:37:25.113Z,3.1
2022-11-03T21:47:34.114Z,4.6
2022-11-03T21:55:44.560Z,4.7
2022-11-03T21:57:46.381Z,4.2
2022-11-03T21:59:48.165Z,4
2022-11-03T22:01:50.029Z,3.8
2022-11-03T22:03:51.764Z,2.7
2022-11-03T22:05:56.829Z,3
2022-11-03T22:08:00.229Z,4.8
2022-11-03T22:10:01.974Z,2.9
2022-11-03T22:12:30.638Z,4.2
2022-11-03T22:14:32.437Z,3.7
2022-11-03T22:16:34.256Z,3.3
2022-11-03T22:24:44.683Z,2.4
2022-11-03T22:26:46.494Z,3.3
2022-11-03T22:28:48.317Z,3.7
2022-11-03T22:32:55.180Z,2.8
2022-11-03T22:34:56.935Z,2.9
2022-11-03T22:39:00.520Z,2.8
2022-11-03T22:41:02.313Z,3.4
2022-11-03T22:43:04.120Z,2.2
2022-11-03T22:47:12.276Z,3.1
2022-11-03T22:53:16.285Z,1.9
2022-11-03T22:55:18.083Z,1.8
2022-11-03T22:57:19.876Z,1.7
2022-11-03T22:59:21.679Z,2.3
2022-11-03T23:03:28.475Z,4.4
2022-11-03T23:05:30.255Z,2.4
2022-11-03T23:06:32.769Z,3.6
2022-11-03T23:08:34.558Z,3.6
2022-11-03T23:12:38.099Z,1.6
2022-11-03T23:14:43.140Z,2.1
2022-11-03T23:16:44.937Z,1.7
2022-11-03T23:18:46.715Z,2
2022-11-03T23:20:48.485Z,2.3
2022-11-03T23:22:50.282Z,3.1
2022-11-03T23:24:52.099Z,2.3
2022-11-03T23:26:53.845Z,2.7
2022-11-03T23:28:58.844Z,2
2022-11-03T23:31:00.637Z,2.6
2022-11-03T23:39:07.779Z,2.6
2022-11-03T23:49:19.919Z,2.3
2022-11-03T23:51:21.693Z,1.8
2022-11-03T23:53:23.481Z,2.9
2022-11-03T23:55:25.260Z,2.5
2022-11-03T23:57:30.300Z,2.6
2022-11-03T23:59:32.088Z,3.2
